Meteo Giornale » Osservazioni meteo Italia » Pisa-S Giusto

ore: 08:15 - Osservazioni Meteo Pisa-S Giusto
Lat. 43° 41' N Lon. 10° 23' E Alt. 2 metri s.l.m.

nuvoloso Europe/Rome

20 °C

Nuvoloso

Temp. 24 Ore

18 °C

28 °C

Est/Sud-Est

11.1 Km/h

Dew point 19 °C

Umidità 93 %

Visibilità  10 Km

Il sole sorge alle ore 06:01

Il sole tramonta alle ore 20:48

Data e Ora Cielo e Fenomeni T °C DP °C Um. % Pres. hPa Vis. km Vento km/h
Oggi h: 08:15 nuvoloso Nuvoloso 20 19 93 1010 10 E/SE 11.1
Oggi h: 07:45 nuvoloso Nuvoloso 19 18 93 1010 10 E 7.4
Oggi h: 07:15 poco_nuvoloso Poco Nuvoloso 18 17 93 1010 10 N 5.5
Oggi h: 06:45 poco_nuvoloso Poco Nuvoloso 18 17 93 1010 10 SE 7.4
Oggi h: 05:45 poco_nuvoloso Poco Nuvoloso 18 17 93 1009 10 E 7.4
Oggi h: 05:15 poco_nuvoloso Poco Nuvoloso 18 17 93 1009 10 N 3.7
Oggi h: 04:45 sereno Sereno 18 18 100 1009 10 N 5.5
Oggi h: 04:15 sereno Sereno 19 18 93 1009 10 N 3.7
Oggi h: 03:45 sereno Sereno 19 18 93 1009 10 N 5.5
Oggi h: 03:15 sereno Sereno 19 18 93 1008 10 N 5.5
Oggi h: 02:45 sereno Sereno 19 18 93 1008 10 N 5.5
Oggi h: 02:15 sereno Sereno 20 18 88 1008 10 N 3.7
Oggi h: 01:45 sereno Sereno 20 18 88 1009 10 N 1.8
Oggi h: 01:15 sereno Sereno 21 19 88 1009 10 O 7.4
Oggi h: 00:45 sereno Sereno 20 19 93 1009 10 O/SO 9.3
Oggi h: 00:15 sereno Sereno 22 20 88 1008 10 SO 7.4
Ieri h: 23:45 sereno Sereno 22 20 88 1008 10 O 7.4
Ieri h: 23:15 sereno Sereno 23 20 83 1008 10 O 7.4
Ieri h: 22:45 sereno Sereno 23 20 83 1008 10 O 7.4
Ieri h: 22:15 sereno Sereno 23 20 83 1008 10 O 9.3
Ieri h: 21:45 sereno Sereno 24 20 78 1007 10 O 7.4
Ieri h: 21:15 sereno Sereno 24 20 78 1007 10 O 9.3
Ieri h: 20:45 sereno Sereno 25 19 69 1007 10 O 11.1
Ieri h: 20:15 sereno Sereno 25 20 73 1006 10 O 16.7
Ieri h: 19:45 sereno Sereno 26 20 69 1006 10 O 18.5
Ieri h: 19:15 poco_nuvoloso Poco Nuvoloso 25 20 73 1006 10 O 18.5
Ieri h: 18:45 poco_nuvoloso Poco Nuvoloso 26 20 69 1006 10 O 20.3
Ieri h: 18:15 nuvoloso Nuvoloso 27 20 65 1006 10 O 18.5
Ieri h: 17:45 nuvoloso Nuvoloso 27 18 57 1006 10 O 22.2
Ieri h: 17:15 poco_nuvoloso Poco Nuvoloso 27 18 57 1006 10 O/SO 24
Ieri h: 16:45 poco_nuvoloso Poco Nuvoloso 27 16 50 1006 10 O/SO 24
Ieri h: 16:15 poco_nuvoloso Poco Nuvoloso 28 16 48 1006 10 O 25.9
Ieri h: 15:45 poco_nuvoloso Poco Nuvoloso 27 17 54 1006 10 O 24
Ieri h: 15:15 poco_nuvoloso Poco Nuvoloso 27 17 54 1006 10 O 25.9
Ieri h: 14:45 poco_nuvoloso Poco Nuvoloso 27 17 54 1006 10 O 25.9
Ieri h: 13:45 poco_nuvoloso Poco Nuvoloso 27 14 44 1006 10 O 24
Ieri h: 13:15 poco_nuvoloso Poco Nuvoloso 28 15 45 1006 10 O 25.9
Ieri h: 12:45 poco_nuvoloso Poco Nuvoloso 28 18 54 1006 10 O 24
Ieri h: 12:15 poco_nuvoloso Poco Nuvoloso 27 18 57 1006 10 O 18.5
Ieri h: 11:45 poco_nuvoloso Poco Nuvoloso 27 18 57 1006 10 O/SO 20.3
Ieri h: 11:15 poco_nuvoloso Poco Nuvoloso 27 17 54 1006 10 O 16.7
Ieri h: 10:45 poco_nuvoloso Poco Nuvoloso 25 18 65 1006 10 O 7.4
Ieri h: 10:15 poco_nuvoloso Poco Nuvoloso 25 18 65 1006 10 N 5.5
Ieri h: 09:45 poco_nuvoloso Poco Nuvoloso 24 17 64 1006 10 N 5.5
Ieri h: 09:15 poco_nuvoloso Poco Nuvoloso 23 16 64 1006 10 E/SE 9.3
Ieri h: 08:45 sereno Sereno 22 17 73 1006 10 E 9.3